Iron Mountain, MI

10:38 PM CST on December 22, 2014 (GMT -0600)
East Kingsford | Change Station
CLOSE
Current Station
Personal Weather Station
Location: Kingsford, MI
Elevation: 1112 ft
Nearby Weather Stations
Active Advisory: Winter Weather Advisory

Elev 1112 ft 45.79 °N, 88.05 °W | Updated 6 minutes ago

Light Snow
Light Snow Mist
32.7 °F
Feels Like 25 °F
N
9.0
Wind Variable Wind from East
Gusts 12.0 mph

Today
High -- | Low -- °F
--% Chance of Precip.
Yesterday
High -- | Low -- °F
Precip. -- in
7:31 AM 4:10 PM
New Moon, 2% visible
Pressure 29.78 in
Visibility 2.0 miles
Clouds Overcast 600 ft
Windchill 25 °F
Dew Point 32 °F
Humidity 98%
Rainfall 0.00 in
Snow Depth Not available.
UV 0 out of 12
Pollen .10 out of 12
Air Quality Not available.
Flu Activity Not available.
METAR KIMT 230405Z AUTO 10006KT 2SM -SN BR OVC006 00/M01 A2978 RMK AO2 CIG 005V009 P0000 T00001011

More Conditions Fewer Conditions

Pressure 29.78 in
Visibility 2.0 miles
Clouds Overcast 600 ft
Windchill 25 °F
Dew Point 32 °F
Humidity 98%
Rainfall 0.00 in
Snow Depth Not available.
UV 0 out of 12
Pollen .10 out of 12
Air Quality Not available.
Flu Activity Not available.
METAR KIMT 230405Z AUTO 10006KT 2SM -SN BR OVC006 00/M01 A2978 RMK AO2 CIG 005V009 P0000 T00001011

More Conditions Fewer Conditions

10-Day Weather Forecast

Almanac

Astronomy

Dec. 22, 2014 Rise Set
Actual Time
Civil Twilight
Nautical Twilight
Astronomical Twilight
Moon
Length of Visible Light
Length of Day
Tomorrow will be .
, % of the Moon is Illuminated

Today's Extremes

State Highs State Lows

Community

WunderPhotos

Upload Photos

1,779,778 photos uploaded!

WunderBlogs® & News

Nearby

Air Quality

  Air Quality AQ Index Pollutant
Not available.

Snow Depth

Station Depth Elevation

Earthquake Activity

City Distance Mag. Time & Date
Minimum magnitude displayed is 2.5.

Coastal Water Temperatures

Place Temperature

Nearby Weather Stations